Carroll, Iowa
Current Conditions -  °F | °C
As of 8:35 PM on Tuesday 21 Oct 2014 (Local Time) from KCIN Reporting Station
Broken Clouds Broken Clouds  
Wind Chill: 52°   Ceiling: 3300
Heat Index: 52°   Visibility: 10mi
Dew Point: 45°   Wind: 7mph
Humidity: 76%   Direction: 130°SE
Pressure: 30.1"   Gusts: NA
Location:  42.07°N, 94.87°W
Report Text: KCIN 220135Z AUTO 13006KT 10SM BKN033 BKN039 11/07 A3010 RMK AO2
Loading
Personal Weather Stations






























Interactive Weather Map
Tropical Storm Tracking
New forecast layout! Learn more

10-Day Weather Forecast

Advertisements
Track Severe Weather on mobile